Time;durP1;ratioP1;P1;durP2;ratioP2;P2;SDS_P1;SDS_P2;PMS_P1;PMS_P2;Temp;Humidity;BMP_temperature;BMP_pressure;BME280_temperature;BME280_humidity;BME280_pressure;Samples;Min_cycle;Max_cycle;Signal;HPM_P1;HPM_P2
2023/03/21 00:01:02;;;;;;;17.00;5.78;;;;;;;-2.10;55.80;63492.84;5096024;28;20042;-78
2023/03/21 00:03:30;;;;;;;11.85;5.60;;;;;;;-2.05;55.66;63483.38;5095972;28;20483;-79
2023/03/21 00:05:56;;;;;;;14.48;5.40;;;;;;;-2.07;55.55;63498.78;5094518;28;20036;-77
2023/03/21 00:08:24;;;;;;;23.70;5.88;;;;;;;-2.13;55.60;63474.50;5094485;28;20044;-78
2023/03/21 00:10:58;;;;;;;23.83;5.57;;;;;;;-2.08;55.92;63479.50;5077887;28;20101;-78
2023/03/21 00:13:27;;;;;;;10.50;4.93;;;;;;;-2.07;55.34;63496.75;5111542;28;20127;-78
2023/03/21 00:15:53;;;;;;;7.75;5.35;;;;;;;-2.05;55.78;63482.84;5094176;28;20068;-78
2023/03/21 00:18:21;;;;;;;15.50;6.50;;;;;;;-2.07;55.96;63496.75;5094448;28;20101;-82
2023/03/21 00:21:04;;;;;;;8.85;6.07;;;;;;;-2.02;55.58;63501.75;5077835;28;20044;-78
2023/03/21 00:23:32;;;;;;;19.98;5.72;;;;;;;-2.04;55.19;63499.50;5077634;28;20055;-78
2023/03/21 00:25:58;;;;;;;13.07;6.70;;;;;;;-2.02;55.55;63502.31;5077047;28;20068;-79
2023/03/21 00:28:25;;;;;;;14.02;6.35;;;;;;;-2.12;55.43;63475.06;5093881;28;20058;-78
2023/03/21 00:30:55;;;;;;;18.35;6.43;;;;;;;-2.27;56.16;63459.50;5094353;28;20036;-79
2023/03/21 00:33:21;;;;;;;12.80;6.28;;;;;;;-2.27;56.03;63474.50;5094586;28;20490;-79
2023/03/21 00:35:51;;;;;;;16.38;6.70;;;;;;;-2.31;56.29;63470.63;5060814;28;20043;-78
2023/03/21 00:38:18;;;;;;;13.30;6.30;;;;;;;-2.28;56.21;63457.84;5095986;28;20044;-81
2023/03/21 00:40:44;;;;;;;15.43;7.03;;;;;;;-2.27;55.73;63474.50;5094165;28;20521;-80
2023/03/21 00:43:17;;;;;;;16.40;6.32;;;;;;;-2.19;55.88;63483.41;5095320;28;20040;-80
2023/03/21 00:45:43;;;;;;;11.48;6.80;;;;;;;-2.18;55.99;63483.94;5094196;28;20055;-80
2023/03/21 00:48:09;;;;;;;13.07;7.05;;;;;;;-2.19;56.09;63467.81;5094008;28;20040;-80
2023/03/21 00:50:37;;;;;;;17.25;8.20;;;;;;;-2.23;55.88;63479.50;5094270;28;20055;-79
2023/03/21 00:53:04;;;;;;;17.30;8.73;;;;;;;-2.15;55.99;63471.72;5095041;28;20039;-79
2023/03/21 00:55:29;;;;;;;20.10;9.50;;;;;;;-2.07;56.12;63480.59;5093607;28;20123;-79
2023/03/21 00:57:55;;;;;;;16.58;8.57;;;;;;;-2.08;56.07;63480.06;5093703;28;20127;-78
2023/03/21 01:00:24;;;;;;;20.27;8.88;;;;;;;-2.05;55.56;63482.84;5093577;28;20044;-78
2023/03/21 01:02:55;;;;;;;16.25;8.43;;;;;;;-2.07;55.73;63480.59;5076370;28;20091;-79
2023/03/21 01:08:14;;;;;;;15.20;7.93;;;;;;;-2.32;56.81;63468.97;5093347;28;20078;-78
2023/03/21 01:10:43;;;;;;;13.60;8.52;;;;;;;-2.31;56.58;63455.06;5093455;28;20518;-78
2023/03/21 01:13:11;;;;;;;17.57;8.43;;;;;;;-2.27;56.43;63475.06;5093372;28;20057;-79
2023/03/21 01:15:42;;;;;;;27.35;8.50;;;;;;;-2.20;56.18;63482.84;5093219;28;20308;-78
2023/03/21 01:18:08;;;;;;;18.27;8.10;;;;;;;-2.24;56.50;63462.84;5059605;28;20043;-78
2023/03/21 01:20:34;;;;;;;19.70;7.90;;;;;;;-2.16;56.42;63470.63;5076784;28;20552;-79
2023/03/21 01:23:00;;;;;;;25.98;7.97;;;;;;;-2.14;55.76;63472.81;5093326;28;20047;-78
2023/03/21 01:25:26;;;;;;;18.52;7.88;;;;;;;-2.15;55.70;63487.28;5093159;28;20123;-78
2023/03/21 01:27:53;;;;;;;19.10;7.82;;;;;;;-2.11;55.66;63476.16;5094064;28;20056;-78
2023/03/21 01:30:20;;;;;;;20.25;7.90;;;;;;;-2.11;55.40;63491.72;5092839;28;20051;-78
2023/03/21 01:32:46;;;;;;;21.40;9.73;;;;;;;-2.16;55.62;63471.16;5092936;28;20044;-79
2023/03/21 01:35:12;;;;;;;18.08;8.18;;;;;;;-2.15;55.24;63471.72;5109850;28;20036;-79
2023/03/21 01:37:38;;;;;;;20.15;8.02;;;;;;;-2.15;55.47;63471.72;5093106;28;20043;-79
2023/03/21 01:40:05;;;;;;;20.67;8.57;;;;;;;-2.15;55.41;63487.28;5075883;28;20131;-79
2023/03/21 01:42:31;;;;;;;18.85;7.78;;;;;;;-2.11;55.58;63476.16;5092886;28;20139;-79
2023/03/21 01:45:04;;;;;;;30.20;8.90;;;;;;;-2.17;55.57;63485.09;5075715;28;20043;-78
2023/03/21 01:47:42;;;;;;;29.70;8.25;;;;;;;-2.27;55.68;63474.50;5077510;28;20062;-79
2023/03/21 01:50:24;;;;;;;21.80;8.50;;;;;;;-2.32;55.74;63472.13;5092820;28;20044;-80
2023/03/21 01:53:10;;;;;;;14.27;7.53;;;;;;;-2.31;55.44;63455.06;5094091;28;20040;-79
2023/03/21 01:55:37;;;;;;;20.70;8.10;;;;;;;-2.32;55.47;63453.41;5092536;28;20040;-79
2023/03/21 01:58:17;;;;;;;18.92;8.52;;;;;;;-2.33;55.43;63452.84;5075729;28;20040;-79
2023/03/21 02:01:03;;;;;;;19.77;8.70;;;;;;;-2.39;56.06;63446.19;5093072;28;20074;-79
2023/03/21 02:03:50;;;;;;;25.30;10.13;;;;;;;-2.46;55.96;63438.94;5092527;28;20502;-79
2023/03/21 02:07:03;;;;;;;21.83;10.13;;;;;;;-2.49;55.75;63448.03;5091417;28;20051;-78
2023/03/21 02:09:43;;;;;;;30.17;10.77;;;;;;;-2.52;55.97;63444.69;5092575;28;20047;-78
2023/03/21 02:12:17;;;;;;;27.17;11.00;;;;;;;-2.47;56.12;63453.41;5076089;28;20126;-79
2023/03/21 02:14:48;;;;;;;31.58;11.35;;;;;;;-2.47;56.43;63452.84;5092098;28;20044;-79
2023/03/21 02:17:58;;;;;;;21.35;11.73;;;;;;;-2.40;56.09;63460.63;5078150;28;20107;-80
2023/03/21 02:20:39;;;;;;;35.65;13.30;;;;;;;-2.41;56.09;63458.97;5091722;28;20189;-80
2023/03/21 02:23:51;;;;;;;32.22;12.25;;;;;;;-2.41;56.11;63443.94;5075427;28;20514;-79
2023/03/21 02:26:59;;;;;;;22.35;11.23;;;;;;;-2.38;56.41;63462.84;5063823;28;20055;-79
2023/03/21 02:29:57;;;;;;;34.45;10.95;;;;;;;-2.36;55.93;63449.50;5092310;28;20127;-79
2023/03/21 02:32:48;;;;;;;31.45;9.63;;;;;;;-2.47;56.48;63437.28;5074873;28;20040;-79
2023/03/21 02:35:32;;;;;;;27.65;9.50;;;;;;;-2.36;56.18;63449.50;5074642;28;20139;-79
2023/03/21 02:38:10;;;;;;;61.55;10.63;;;;;;;-2.21;56.08;63481.75;5092059;28;20040;-80
2023/03/21 02:40:51;;;;;;;41.75;9.23;;;;;;;-2.08;55.98;63479.50;5074806;28;20044;-79
2023/03/21 02:43:44;;;;;;;31.75;9.32;;;;;;;-1.97;55.62;63510.44;5091812;28;20051;-79
2023/03/21 02:46:36;;;;;;;28.15;10.27;;;;;;;-1.83;55.29;63507.28;5092387;28;20123;-79
2023/03/21 02:49:14;;;;;;;25.20;8.95;;;;;;;-1.84;55.06;63521.75;5069569;28;20102;-80
2023/03/21 02:51:43;;;;;;;56.92;9.90;;;;;;;-1.68;54.70;63523.41;5091659;28;20102;-78
2023/03/21 02:54:12;;;;;;;;;;;;;;;-1.60;54.38;63531.72;5075295;28;20040;-77
2023/03/21 02:56:39;;;;;;;20.33;7.85;;;;;;;-1.64;54.32;63527.84;5058074;28;19972;-78
2023/03/21 02:59:06;;;;;;;34.60;8.10;;;;;;;-1.65;54.30;63541.78;5074906;28;20079;-79
2023/03/21 03:01:33;;;;;;;27.00;7.82;;;;;;;-1.64;53.86;63527.28;5091394;28;20040;-78
2023/03/21 03:04:00;;;;;;;30.02;7.65;;;;;;;-1.64;53.40;63545.47;5074998;28;20087;-79
2023/03/21 03:06:43;;;;;;;23.08;8.30;;;;;;;-1.56;53.25;63536.72;5091518;28;20177;-79
2023/03/21 03:09:27;;;;;;;39.17;8.73;;;;;;;-1.54;53.18;63538.97;5092071;28;20407;-78
2023/03/21 03:12:06;;;;;;;22.65;7.85;;;;;;;-1.56;52.98;63551.75;5075026;28;20071;-78
2023/03/21 03:14:43;;;;;;;23.48;7.75;;;;;;;-1.49;52.19;63543.97;5074686;28;20068;-79
2023/03/21 03:17:20;;;;;;;26.38;6.85;;;;;;;-1.37;52.32;63557.28;5093156;28;20448;-77
2023/03/21 03:19:46;;;;;;;21.48;6.95;;;;;;;-1.26;52.08;63569.53;5096907;28;20168;-77
2023/03/21 03:22:23;;;;;;;22.75;6.78;;;;;;;-1.13;51.97;63582.88;5095333;28;20131;-80
2023/03/21 03:25:01;;;;;;;25.08;7.30;;;;;;;-1.04;51.08;63593.44;5096786;28;20581;-79
2023/03/21 03:27:35;;;;;;;26.38;6.32;;;;;;;-1.14;50.68;63597.38;5095061;28;20063;-84
2023/03/21 03:30:04;;;;;;;22.85;6.05;;;;;;;-1.06;50.39;63590.66;5078352;28;20131;-82
2023/03/21 03:32:38;;;;;;;17.08;5.47;;;;;;;-1.01;50.13;63596.78;5095577;28;20039;-80
2023/03/21 03:35:06;;;;;;;22.70;5.60;;;;;;;-0.87;50.20;63611.22;5078662;28;20042;-81
2023/03/21 03:37:36;;;;;;;19.10;5.93;;;;;;;-0.71;49.49;63628.47;5097737;28;20391;-81
2023/03/21 03:40:33;;;;;;;25.35;5.80;;;;;;;-0.66;49.19;63634.06;5064930;28;20456;-78
2023/03/21 03:43:14;;;;;;;15.57;5.60;;;;;;;-0.71;48.67;63644.09;5096404;28;20040;-81
2023/03/21 03:45:50;;;;;;;11.75;5.43;;;;;;;-0.76;48.79;63639.09;5062378;28;20529;-78
2023/03/21 03:48:31;;;;;;;31.55;5.22;;;;;;;-0.65;48.37;63651.31;5073690;28;20379;-77
2023/03/21 03:51:27;;;;;;;30.85;5.53;;;;;;;-0.49;48.30;63652.97;5085993;28;20056;-87
2023/03/21 03:54:11;;;;;;;24.13;5.00;;;;;;;-0.35;47.52;63684.16;5095010;28;20407;-80
2023/03/21 03:56:39;;;;;;;14.90;6.30;;;;;;;-0.28;46.91;63676.34;5078006;28;20130;-81
2023/03/21 03:59:06;;;;;;;20.85;5.60;;;;;;;-0.31;46.83;63688.63;5078374;28;20140;-79
2023/03/21 04:01:52;;;;;;;19.15;5.43;;;;;;;-0.34;47.12;63684.72;5080691;28;20557;-77
2023/03/21 04:04:21;;;;;;;19.55;4.82;;;;;;;-0.34;46.60;63669.66;5077276;28;20036;-81
2023/03/21 04:06:50;;;;;;;23.00;5.43;;;;;;;-0.41;46.67;63661.88;5069104;28;20036;-78
2023/03/21 04:09:20;;;;;;;15.13;4.88;;;;;;;-0.37;46.51;63666.31;5076923;28;20533;-77
2023/03/21 04:11:47;;;;;;;28.90;5.35;;;;;;;-0.29;46.22;63675.22;5060452;28;20134;-79
2023/03/21 04:14:13;;;;;;;19.25;5.75;;;;;;;-0.17;46.16;63687.47;5066268;28;20503;-77
2023/03/21 04:16:39;;;;;;;20.70;6.03;;;;;;;-0.08;45.96;63697.50;5075950;28;20135;-77
2023/03/21 04:19:05;;;;;;;14.40;5.25;;;;;;;-0.10;45.65;63695.28;5090609;28;20130;-77
2023/03/21 04:21:31;;;;;;;16.25;5.38;;;;;;;0.04;45.77;63710.88;5092235;28;20040;-79
2023/03/21 04:23:58;;;;;;;17.30;6.90;;;;;;;0.22;46.05;63730.88;5077333;28;20047;-77
2023/03/21 04:26:31;;;;;;;18.15;5.93;;;;;;;0.38;45.14;63747.63;5093940;28;20101;-77
2023/03/21 04:29:17;;;;;;;18.20;4.97;;;;;;;0.48;45.33;63758.75;5086773;28;20044;-80
2023/03/21 04:31:58;;;;;;;18.42;5.38;;;;;;;0.37;44.24;63746.50;5093783;28;20071;-77
2023/03/21 04:34:27;;;;;;;29.13;5.60;;;;;;;0.57;45.13;63768.78;5094156;28;20115;-77
2023/03/21 04:36:56;;;;;;;21.38;6.10;;;;;;;0.78;44.69;63791.06;5076966;28;20068;-80
2023/03/21 04:39:23;;;;;;;37.03;5.97;;;;;;;0.73;43.69;63786.59;5094007;28;20082;-78
2023/03/21 04:41:49;;;;;;;17.40;5.72;;;;;;;0.89;43.89;63803.31;5093844;28;20135;-79
2023/03/21 04:44:16;;;;;;;20.42;4.55;;;;;;;0.88;42.55;63802.22;5093709;28;20051;-77
2023/03/21 04:46:43;;;;;;;15.25;5.05;;;;;;;0.92;43.23;63806.66;5076762;28;20546;-78
2023/03/21 04:49:10;;;;;;;23.33;6.43;;;;;;;0.90;43.00;63804.44;5059863;28;20051;-80
2023/03/21 04:51:37;;;;;;;22.02;5.28;;;;;;;0.88;43.08;63802.22;5056782;28;20049;-78
2023/03/21 04:54:07;;;;;;;21.85;5.10;;;;;;;0.88;42.53;63802.75;5073329;28;20056;-78
2023/03/21 04:56:34;;;;;;;31.20;5.30;;;;;;;0.97;42.73;63812.22;5090151;28;20044;-79
2023/03/21 04:59:08;;;;;;;13.95;5.10;;;;;;;1.03;42.33;63818.38;5056405;28;20040;-81
2023/03/21 05:01:33;;;;;;;20.15;5.35;;;;;;;1.04;42.56;63819.47;5039925;28;20384;-78
2023/03/21 05:04:01;;;;;;;23.83;5.50;;;;;;;1.09;42.39;63825.03;5090277;28;20048;-77
2023/03/21 05:06:27;;;;;;;22.55;5.45;;;;;;;1.05;42.42;63821.16;5074349;28;20041;-78
2023/03/21 05:08:58;;;;;;;36.70;5.63;;;;;;;1.10;42.14;63826.72;5073291;28;20044;-80
2023/03/21 05:11:29;;;;;;;14.63;5.68;;;;;;;1.08;42.24;63824.50;5073398;28;20051;-78
2023/03/21 05:13:56;;;;;;;22.90;5.53;;;;;;;1.07;42.47;63839.03;5039916;28;20040;-79
2023/03/21 05:16:25;;;;;;;19.27;6.07;;;;;;;1.12;42.25;63828.94;5056111;28;20032;-78
2023/03/21 05:18:53;;;;;;;33.83;6.72;;;;;;;1.20;42.56;63837.88;5039958;28;20045;-78
2023/03/21 05:21:22;;;;;;;26.08;6.40;;;;;;;1.06;42.72;63837.94;5039887;28;20045;-80
2023/03/21 05:23:54;;;;;;;29.65;7.97;;;;;;;1.16;42.52;63833.41;5056120;28;20055;-78
2023/03/21 05:26:21;;;;;;;20.90;6.35;;;;;;;1.15;42.54;63847.94;5055438;28;20040;-79
2023/03/21 05:28:56;;;;;;;24.48;7.43;;;;;;;1.31;42.78;63849.03;5057390;28;20089;-78
2023/03/21 05:31:22;;;;;;;30.08;7.95;;;;;;;1.32;42.16;63850.16;5055908;28;20119;-80
2023/03/21 05:33:53;;;;;;;27.42;6.45;;;;;;;1.44;41.97;63881.81;5056169;28;20487;-79
2023/03/21 05:36:19;;;;;;;19.83;7.60;;;;;;;1.70;42.09;63892.53;5072677;28;20601;-78
2023/03/21 05:38:45;;;;;;;23.00;6.85;;;;;;;1.87;41.34;63910.91;5072734;28;20037;-79
2023/03/21 05:41:14;;;;;;;22.42;6.22;;;;;;;1.67;40.99;63888.63;5055782;28;20125;-78
2023/03/21 05:43:40;;;;;;;22.60;7.72;;;;;;;1.64;41.54;63885.81;5089153;28;20083;-78
2023/03/21 05:46:07;;;;;;;20.67;6.85;;;;;;;1.82;41.52;63904.78;5072407;28;20040;-78
2023/03/21 05:48:33;;;;;;;33.78;6.82;;;;;;;1.88;40.95;63911.47;5055634;28;20055;-78
2023/03/21 05:51:14;;;;;;;24.33;6.55;;;;;;;2.03;40.81;63943.91;5072429;28;20135;-78
2023/03/21 05:53:40;;;;;;;21.17;8.10;;;;;;;2.16;40.63;63942.72;5072292;28;20098;-78
2023/03/21 05:56:07;;;;;;;31.67;7.63;;;;;;;2.39;40.59;63967.28;5055550;28;20139;-78
2023/03/21 05:58:53;;;;;;;18.02;6.43;;;;;;;2.42;39.75;63970.63;5072110;28;20056;-78
2023/03/21 06:01:21;;;;;;;22.27;6.38;;;;;;;2.47;39.69;63976.22;5071965;28;20428;-78
2023/03/21 06:03:55;;;;;;;19.42;6.68;;;;;;;2.50;39.28;63979.56;5072332;28;20051;-78
2023/03/21 06:06:23;;;;;;;23.70;7.05;;;;;;;2.75;39.78;64006.38;5072569;28;20048;-79
2023/03/21 06:08:53;;;;;;;20.00;6.57;;;;;;;2.98;39.79;64032.03;5071798;28;20466;-78
2023/03/21 06:11:23;;;;;;;21.80;6.88;;;;;;;3.08;39.10;64043.19;5071809;28;20072;-79
2023/03/21 06:13:52;;;;;;;32.92;7.25;;;;;;;2.75;38.50;64006.91;5039278;28;20055;-79
2023/03/21 06:16:20;;;;;;;40.05;7.40;;;;;;;2.93;38.45;64026.44;5055634;28;20044;-79
2023/03/21 06:18:46;;;;;;;25.23;7.28;;;;;;;3.26;38.74;64077.91;5071877;28;20093;-78
2023/03/21 06:21:25;;;;;;;21.92;7.65;;;;;;;3.57;37.46;64096.84;5055944;28;20036;-79
2023/03/21 06:23:51;;;;;;;33.90;6.93;;;;;;;3.70;37.15;64110.81;5038753;28;20063;-79
2023/03/21 06:26:21;;;;;;;20.25;7.07;;;;;;;3.80;36.57;64122.00;5082254;28;20135;-80
2023/03/21 06:28:52;;;;;;;33.60;6.75;;;;;;;3.89;36.27;64131.50;5075388;28;20402;-80
2023/03/21 06:31:21;;;;;;;25.73;7.10;;;;;;;4.06;36.37;64150.50;5075267;28;20537;-79
2023/03/21 06:33:48;;;;;;;34.33;7.95;;;;;;;4.31;36.92;64177.34;5074732;28;20156;-79
2023/03/21 06:36:14;;;;;;;13.25;6.38;;;;;;;4.30;36.43;64176.22;5066026;28;20071;-77
2023/03/21 06:38:40;;;;;;;17.17;5.65;;;;;;;4.24;35.00;64170.06;5054947;28;20139;-79
2023/03/21 06:41:08;;;;;;;17.88;5.90;;;;;;;4.29;35.06;64175.13;5054831;28;20040;-77
2023/03/21 06:43:40;;;;;;;26.77;5.90;;;;;;;4.22;32.58;64167.84;5082891;28;20075;-77
2023/03/21 06:46:06;;;;;;;17.60;5.10;;;;;;;4.26;32.43;64172.31;5072439;28;20543;-82
2023/03/21 06:48:32;;;;;;;16.10;5.10;;;;;;;4.32;31.15;64178.44;5055066;28;20045;-81
2023/03/21 06:50:58;;;;;;;12.38;4.72;;;;;;;4.19;29.92;64163.94;5057573;28;20048;-78
2023/03/21 06:53:26;;;;;;;23.92;6.53;;;;;;;4.58;31.36;64207.53;5065762;28;20040;-78
2023/03/21 06:56:14;;;;;;;15.27;4.85;;;;;;;4.90;30.58;64242.22;5057035;28;20060;-78
2023/03/21 06:58:41;;;;;;;18.67;5.57;;;;;;;5.01;30.40;64254.53;5054467;28;20051;-79
2023/03/21 07:01:13;;;;;;;9.32;4.93;;;;;;;5.33;30.77;64289.25;5071313;28;20552;-77
2023/03/21 07:03:52;;;;;;;16.10;5.40;;;;;;;5.64;30.45;64323.38;5039693;28;20044;-79
2023/03/21 07:06:20;;;;;;;35.53;5.55;;;;;;;5.74;30.04;64334.59;5054425;28;20503;-78
2023/03/21 07:08:46;;;;;;;24.02;5.38;;;;;;;5.79;30.21;64339.63;5087917;28;20045;-78
2023/03/21 07:11:13;;;;;;;19.77;5.03;;;;;;;5.63;29.75;64321.72;5054549;28;20036;-77
2023/03/21 07:13:39;;;;;;;13.80;4.65;;;;;;;5.55;29.93;64313.88;5071564;28;20047;-80
2023/03/21 07:16:07;;;;;;;8.10;3.30;;;;;;;5.59;29.64;64318.34;5071480;28;20044;-79
2023/03/21 07:18:34;;;;;;;13.63;3.85;;;;;;;5.80;29.90;64340.75;5054503;28;20047;-84
2023/03/21 07:21:00;;;;;;;11.85;3.97;;;;;;;5.88;30.21;64349.16;5075848;28;20052;-79
2023/03/21 07:23:27;;;;;;;13.35;3.50;;;;;;;5.78;28.96;64339.06;5074705;28;20049;-78
2023/03/21 07:25:54;;;;;;;15.40;3.47;;;;;;;5.87;29.30;64348.59;5070910;28;20457;-78
2023/03/21 07:28:21;;;;;;;92.97;53.22;;;;;;;5.75;28.69;64335.72;5074077;28;20052;-78
2023/03/21 07:30:57;;;;;;;12.57;3.10;;;;;;;5.52;28.60;64309.94;5054215;28;20045;-77
2023/03/21 07:33:24;;;;;;;13.23;3.25;;;;;;;5.26;28.62;64281.41;5073684;28;20509;-77
2023/03/21 07:35:52;;;;;;;20.80;3.88;;;;;;;5.22;29.10;64277.47;5054438;28;20465;-79
2023/03/21 07:38:19;;;;;;;11.25;3.78;;;;;;;5.24;29.22;64279.72;5054365;28;20097;-80
2023/03/21 07:40:47;;;;;;;10.65;3.58;;;;;;;5.38;29.34;64294.84;5071105;28;20044;-78
2023/03/21 07:43:14;;;;;;;5.88;3.25;;;;;;;5.37;29.09;64293.72;5070843;28;20033;-78
2023/03/21 07:45:43;;;;;;;10.95;3.35;;;;;;;5.37;29.49;64293.72;5070620;28;20036;-81
2023/03/21 07:48:11;;;;;;;6.07;3.35;;;;;;;5.46;28.89;64303.81;5072380;28;20040;-79
2023/03/21 07:50:39;;;;;;;21.65;5.00;;;;;;;5.74;29.50;64334.03;5071204;28;20048;-79
2023/03/21 07:53:06;;;;;;;8.35;3.55;;;;;;;6.15;30.52;64378.88;5078485;28;20525;-80
2023/03/21 07:55:33;;;;;;;17.63;3.72;;;;;;;6.30;27.77;64395.69;5081341;28;20494;-80
2023/03/21 07:58:03;;;;;;;10.13;3.50;;;;;;;6.61;27.66;64429.31;5092208;28;20051;-78
2023/03/21 08:00:30;;;;;;;8.02;3.65;;;;;;;6.51;26.35;64418.66;5092249;28;20126;-78
2023/03/21 08:02:56;;;;;;;9.68;3.58;;;;;;;6.33;26.25;64399.03;5092284;28;20522;-79
2023/03/21 08:05:33;;;;;;;10.93;3.55;;;;;;;6.48;25.99;64415.28;5077034;28;20044;-77
2023/03/21 08:07:59;;;;;;;18.73;3.70;;;;;;;6.38;25.79;64404.63;5078405;28;20044;-78
2023/03/21 08:10:25;;;;;;;7.65;3.28;;;;;;;6.54;26.46;64422.59;5094348;28;20059;-78
2023/03/21 08:12:51;;;;;;;8.65;3.15;;;;;;;6.55;26.36;64423.69;5094547;28;20040;-80
2023/03/21 08:15:18;;;;;;;14.00;3.20;;;;;;;6.47;26.65;64414.16;5061092;28;20040;-77
2023/03/21 08:17:44;;;;;;;7.03;3.42;;;;;;;6.44;26.15;64410.81;5075642;28;20079;-77
2023/03/21 08:20:15;;;;;;;8.05;3.28;;;;;;;6.52;26.88;64420.34;5077693;28;20097;-81
2023/03/21 08:22:50;;;;;;;9.85;3.40;;;;;;;6.67;26.82;64436.03;5092967;28;20125;-79
2023/03/21 08:25:18;;;;;;;11.10;3.22;;;;;;;6.57;27.33;64425.94;5060155;28;20494;-77
2023/03/21 08:27:45;;;;;;;8.52;3.53;;;;;;;6.76;28.56;64446.13;5077207;28;20470;-79
2023/03/21 08:30:14;;;;;;;8.02;2.92;;;;;;;6.95;28.32;64466.84;5093743;28;20067;-78
2023/03/21 08:32:41;;;;;;;12.25;3.50;;;;;;;7.03;29.48;64476.41;5093960;28;20052;-78
2023/03/21 08:35:09;;;;;;;6.18;3.20;;;;;;;7.17;30.05;64491.53;5111153;28;20431;-79
2023/03/21 08:37:36;;;;;;;48.25;5.78;;;;;;;7.22;30.44;64496.56;5077527;28;20044;-78
2023/03/21 08:40:10;;;;;;;11.52;3.38;;;;;;;7.40;30.48;64516.78;5093787;28;20044;-78
2023/03/21 08:42:52;;;;;;;8.40;2.97;;;;;;;7.44;30.04;64521.25;5093920;28;20139;-78
2023/03/21 08:45:18;;;;;;;6.65;3.15;;;;;;;7.42;29.32;64519.03;5077159;28;20036;-79
2023/03/21 08:47:45;;;;;;;9.00;3.30;;;;;;;7.57;30.01;64534.72;5059980;28;20398;-78
2023/03/21 08:50:14;;;;;;;6.85;3.03;;;;;;;7.58;29.72;64535.84;5076742;28;20055;-78
2023/03/21 08:52:40;;;;;;;;;;;;;;;7.52;29.36;64529.66;5095198;28;20047;-79
2023/03/21 08:55:06;;;;;;;4.90;3.00;;;;;;;7.52;29.05;64530.25;5093743;28;19916;-80
2023/03/21 08:57:32;;;;;;;5.68;3.10;;;;;;;7.52;28.43;64530.25;5093538;28;20502;-81
2023/03/21 08:59:58;;;;;;;10.77;2.78;;;;;;;7.54;28.37;64532.47;5094688;28;20093;-78
2023/03/21 09:02:24;;;;;;;6.75;2.75;;;;;;;7.69;28.29;64548.75;5093550;28;20041;-80
2023/03/21 09:04:53;;;;;;;5.85;2.80;;;;;;;7.89;28.68;64570.63;5076824;28;20100;-78
2023/03/21 09:07:21;;;;;;;8.57;3.47;;;;;;;8.20;27.81;64604.34;5076489;28;20399;-79
2023/03/21 09:09:47;;;;;;;6.45;2.83;;;;;;;8.25;28.13;64609.94;5094494;28;20135;-77
2023/03/21 09:12:13;;;;;;;22.98;6.05;;;;;;;8.25;27.60;64610.50;5076484;28;20098;-78
2023/03/21 09:14:38;;;;;;;6.03;2.70;;;;;;;8.28;27.68;64613.88;5110168;28;20052;-79
2023/03/21 09:17:04;;;;;;;8.00;2.88;;;;;;;8.54;27.58;64641.38;5059419;28;20548;-79
2023/03/21 09:19:30;;;;;;;7.07;2.85;;;;;;;8.61;27.58;64649.81;5093763;28;20122;-77
2023/03/21 09:21:56;;;;;;;18.77;3.28;;;;;;;8.44;27.47;64630.72;5076098;28;20387;-77
2023/03/21 09:24:23;;;;;;;5.65;3.05;;;;;;;8.42;27.23;64629.03;5094205;28;20040;-79
2023/03/21 09:26:50;;;;;;;12.48;3.13;;;;;;;8.58;27.46;64646.47;5075868;28;20056;-77
2023/03/21 09:29:19;;;;;;;9.00;3.15;;;;;;;8.64;27.28;64653.19;5076253;28;20048;-79
2023/03/21 09:31:46;;;;;;;7.32;2.80;;;;;;;8.82;27.74;64672.28;5094050;28;20185;-78
2023/03/21 09:34:14;;;;;;;5.18;3.15;;;;;;;9.06;27.98;64699.25;5076568;28;20437;-78
2023/03/21 09:36:42;;;;;;;5.82;3.00;;;;;;;9.33;27.30;64729.03;5075895;28;20040;-77
2023/03/21 09:39:10;;;;;;;4.45;2.58;;;;;;;9.35;26.46;64730.72;5092787;28;20506;-77
2023/03/21 09:41:45;;;;;;;4.03;2.92;;;;;;;9.22;27.13;64716.69;5092177;28;20048;-77
2023/03/21 09:44:31;;;;;;;5.63;2.53;;;;;;;9.40;26.46;64736.34;5092757;28;20052;-78
2023/03/21 09:47:33;;;;;;;13.23;3.05;;;;;;;9.20;25.83;64714.97;5092476;28;20044;-77
2023/03/21 09:50:30;;;;;;;5.13;3.13;;;;;;;9.30;26.93;64725.09;5075533;28;20089;-78
2023/03/21 09:53:17;;;;;;;7.10;2.80;;;;;;;9.17;26.20;64711.06;5077750;28;20484;-78
2023/03/21 09:55:44;;;;;;;8.35;2.97;;;;;;;9.06;26.41;64699.25;5075772;28;20093;-78
2023/03/21 09:58:31;;;;;;;4.82;2.65;;;;;;;9.26;26.75;64720.63;5092587;28;20144;-79
2023/03/21 10:01:27;;;;;;;6.97;2.80;;;;;;;9.34;26.77;64730.16;5092371;28;20073;-78
2023/03/21 10:03:55;;;;;;;16.85;3.22;;;;;;;9.06;25.81;64698.69;5092139;28;20048;-78
2023/03/21 10:06:29;;;;;;;12.15;2.83;;;;;;;9.43;26.73;64740.28;5092206;28;20040;-79
2023/03/21 10:09:08;;;;;;;3.30;2.67;;;;;;;9.46;26.11;64743.66;5092138;28;20202;-77
2023/03/21 10:12:07;;;;;;;6.43;2.78;;;;;;;9.82;25.94;64782.44;5092180;28;20040;-79
2023/03/21 10:14:50;;;;;;;10.23;3.17;;;;;;;9.95;25.54;64797.06;5091989;28;20083;-79
2023/03/21 10:17:32;;;;;;;10.98;3.03;;;;;;;9.83;26.02;64784.13;5093409;28;20059;-78
2023/03/21 10:20:24;;;;;;;8.73;3.40;;;;;;;9.95;25.93;64797.06;5058429;28;20036;-78
2023/03/21 10:22:53;;;;;;;11.70;2.50;;;;;;;10.11;25.48;64814.50;5109543;28;20101;-79
2023/03/21 10:25:34;;;;;;;8.85;2.60;;;;;;;9.77;25.89;64776.81;5091789;28;20497;-79
2023/03/21 10:28:02;;;;;;;6.57;2.72;;;;;;;10.11;26.18;64814.50;5091042;28;20055;-77
2023/03/21 10:30:43;;;;;;;3.88;2.50;;;;;;;10.41;25.70;64847.69;5075007;28;20040;-78
2023/03/21 10:33:15;;;;;;;6.53;2.72;;;;;;;10.71;26.20;64880.91;5092004;28;20073;-77
2023/03/21 10:35:45;;;;;;;4.82;2.47;;;;;;;11.14;26.18;64928.19;5092042;28;20104;-78
2023/03/21 10:38:16;;;;;;;11.38;2.60;;;;;;;11.40;25.80;64957.47;5091783;28;20048;-78
2023/03/21 10:40:42;;;;;;;3.30;2.30;;;;;;;11.41;25.37;64958.59;5091564;28;20181;-78
2023/03/21 10:43:36;;;;;;;4.63;2.80;;;;;;;11.57;25.26;64976.03;5091294;28;20077;-77
2023/03/21 10:46:10;;;;;;;5.68;2.80;;;;;;;11.90;25.36;65012.13;5072768;28;20503;-77
2023/03/21 10:48:40;;;;;;;10.80;3.25;;;;;;;11.66;25.25;64985.63;5091548;28;20040;-79
2023/03/21 10:51:08;;;;;;;7.43;2.58;;;;;;;11.77;25.66;64997.44;5074621;28;20051;-79
2023/03/21 10:53:39;;;;;;;4.82;2.13;;;;;;;11.36;25.83;64952.97;5074639;28;20117;-78
2023/03/21 10:56:09;;;;;;;4.18;2.88;;;;;;;11.27;26.33;64942.81;5091189;28;20040;-80
2023/03/21 10:58:41;;;;;;;16.48;3.00;;;;;;;10.81;26.66;64892.16;5093138;28;20040;-78
2023/03/21 11:01:14;;;;;;;5.38;2.63;;;;;;;10.63;26.78;64871.91;5091226;28;20032;-77
2023/03/21 11:03:45;;;;;;;6.97;2.67;;;;;;;10.62;27.46;64870.78;5091427;28;20126;-78
2023/03/21 11:06:11;;;;;;;4.60;2.50;;;;;;;10.54;27.64;64861.78;5091328;28;20109;-80
2023/03/21 11:08:40;;;;;;;7.05;2.63;;;;;;;10.52;27.98;64859.50;5090924;28;20487;-79
2023/03/21 11:11:11;;;;;;;3.45;2.50;;;;;;;10.66;27.68;64875.28;5057485;28;20040;-79
2023/03/21 11:13:42;;;;;;;21.30;2.80;;;;;;;10.65;28.17;64874.72;5091827;28;20403;-80
2023/03/21 11:16:08;;;;;;;7.25;2.58;;;;;;;10.25;28.71;64829.69;5091703;28;20498;-78
2023/03/21 11:18:41;;;;;;;4.28;2.63;;;;;;;10.04;28.44;64806.63;5091372;28;20445;-79
2023/03/21 11:21:10;;;;;;;5.10;2.63;;;;;;;9.77;28.86;64777.38;5058228;28;20214;-79
2023/03/21 11:23:42;;;;;;;4.70;2.58;;;;;;;9.60;29.55;64758.84;5108727;28;20097;-78
2023/03/21 11:26:14;;;;;;;15.20;2.60;;;;;;;10.02;29.17;64804.38;5074169;28;20494;-79
2023/03/21 11:28:43;;;;;;;5.00;2.42;;;;;;;9.97;29.69;64799.88;5090867;28;20056;-80
2023/03/21 11:31:09;;;;;;;10.40;2.85;;;;;;;10.73;29.46;64882.59;5092349;28;20048;-77
2023/03/21 11:33:44;;;;;;;4.78;2.10;;;;;;;11.30;28.47;64945.63;5092165;28;20048;-79
2023/03/21 11:36:19;;;;;;;3.45;2.50;;;;;;;11.90;27.67;65012.13;5074447;28;20101;-78
2023/03/21 11:38:51;;;;;;;4.60;2.25;;;;;;;12.19;26.56;65044.25;5094611;28;20048;-78
2023/03/21 11:41:28;;;;;;;5.30;2.53;;;;;;;12.39;25.75;65066.78;5094541;28;20067;-79
2023/03/21 11:43:54;;;;;;;6.90;2.67;;;;;;;12.89;25.67;65122.03;5096440;28;20044;-80
2023/03/21 11:46:25;;;;;;;3.17;2.30;;;;;;;13.30;25.76;65166.59;5077964;28;20244;-78
2023/03/21 11:48:51;;;;;;;4.50;2.70;;;;;;;13.52;25.00;65190.88;5077783;28;20040;-77
2023/03/21 11:51:58;;;;;;;7.50;2.83;;;;;;;13.44;25.30;65182.41;5111598;28;20059;-80
2023/03/21 11:55:02;;;;;;;8.43;2.40;;;;;;;13.57;25.11;65196.50;5080756;28;20449;-79
2023/03/21 11:57:35;;;;;;;6.72;2.47;;;;;;;13.44;25.35;65181.84;5000540;28;20069;-80